Regional Weather

 

KMKL - Jackson, TN, USA
Distance from station: WNW 50mi, 81km
Updated: Tue, Feb-19-2019 8:53am CST
Clear
Clear
 Wind from E
Wind: E 14 mph , 22 km/h, Gust: 21 mph , 33 km/h
Temperature: 34°F , 1°C
Wind Chill: 25°F , -4°C
Dew Point: 25°F , -4°C
Humidity: 70%
Barometer: 30.43 inHg , 1030.5 hPa
Clouds: Clear
Visibility: 10 miles , 16 km
2019/02/19 14:53 KMKL 191453Z 08012G18KT 10SM CLR 01/M04 A3043 RMK AO2 SLP308 T00111044 58013 $
KMEM - Memphis, TN, USA
Distance from station: W 108mi, 173km
Updated: Tue, Feb-19-2019 8:54am CST
Overcast
Overcast
 Wind from ENE
Wind: ENE 10 mph , 17 km/h
Temperature: 36°F , 2°C
Wind Chill: 29°F , -2°C
Dew Point: 25°F , -4°C
Humidity: 65%
Barometer: 30.41 inHg , 1029.8 hPa
Clouds: Overcast
Visibility: 10 miles , 16 km
Cloud details: Partly cloudy 11000 ft
Mostly cloudy 15000 ft
Overcast 25000 ft
2019/02/19 14:54 KMEM 191454Z 07009KT 10SM SCT110 BKN150 OVC250 02/M04 A3041 RMK AO2 SLP301 T00221039 55004 $
 
KBNA - Nashville, TN, USA
Distance from station: NE 97mi, 157km
Updated: Tue, Feb-19-2019 8:53am CST
Overcast
Overcast
 Wind from ENE
Wind: ENE 13 mph , 20 km/h
Temperature: 36°F , 2°C
Wind Chill: 27°F , -3°C
Dew Point: 23°F , -5°C
Humidity: 60%
Barometer: 30.50 inHg , 1032.8 hPa
Clouds: Overcast
Visibility: 10 miles , 16 km
Cloud details: Mostly cloudy 16000 ft
Overcast 25000 ft
2019/02/19 14:53 KBNA 191453Z 06011KT 10SM BKN160 OVC250 02/M05 A3050 RMK AO2 SLP331 T00171050 58002
KCKV - Clarksville, TN, USA
Distance from station: NNE 99mi, 159km
Updated: Tue, Feb-19-2019 8:52am CST
Clear
Clear
 Wind from E
Wind: E 9 mph , 15 km/h
Temperature: 34°F , 1°C
Wind Chill: 27°F , -3°C
Dew Point: 25°F , -4°C
Humidity: 70%
Barometer: 30.52 inHg , 1033.5 hPa
Clouds: Clear
Visibility: 10 miles , 16 km
2019/02/19 14:52 KCKV 191452Z AUTO 09008KT 10SM CLR 01/M04 A3052 RMK AO2 SLP342 T00111044 55002
 
KPAH - Paducah, KY, USA
Distance from station: NNW 128mi, 205km
Updated: Tue, Feb-19-2019 8:53am CST
Clear
Clear
 Wind from ENE
Wind: ENE 13 mph , 20 km/h, Gust: 22 mph , 35 km/h
Temperature: 34°F , 1°C
Wind Chill: 25°F , -4°C
Dew Point: 23°F , -5°C
Humidity: 65%
Barometer: 30.50 inHg , 1032.8 hPa
Clouds: Clear
Visibility: 10 miles , 16 km
2019/02/19 14:53 KPAH 191453Z 07011G19KT 10SM CLR 01/M05 A3050 RMK AO2 SLP332 T00061050 58010
KCHA - Chattanooga, TN, USA
Distance from station: E 165mi, 265km
Updated: Tue, Feb-19-2019 9:04am CST
Overcast
Overcast
 Wind from N
Wind: N 15 mph , 24 km/h
Temperature: 37°F , 3°C
Wind Chill: 28°F , -2°C
Dew Point: 27°F , -3°C
Humidity: 65%
Barometer: 30.48 inHg , 1032.2 hPa
Clouds: Overcast
Visibility: 10 miles , 16 km
Cloud details: Partly cloudy 8500 ft
Overcast 10000 ft
2019/02/19 15:04 KCHA 191504Z 01013KT 10SM SCT085 OVC100 03/M03 A3048 RMK AO2 RAE03PLE03 P0000 T00281033
 
KTYS - Knoxville, TN, USA
Distance from station: E 234mi, 377km
Updated: Tue, Feb-19-2019 8:53am CST
Overcast
Overcast
 Wind from NE
Wind: NE 13 mph , 20 km/h
Temperature: 36°F , 2°C
Wind Chill: 27°F , -3°C
Dew Point: 27°F , -3°C
Humidity: 70%
Barometer: 30.49 inHg , 1032.5 hPa
Clouds: Overcast
Visibility: 10 miles , 16 km
Cloud details: Mostly cloudy 13000 ft
Overcast 25000 ft
2019/02/19 14:53 KTYS 191453Z 04011KT 10SM BKN130 OVC250 02/M03 A3049 RMK AO2 SLP331 T00171033 50008
KLIT - Little Rock, AR, USA
Distance from station: W 240mi, 386km
Updated: Tue, Feb-19-2019 8:53am CST
Overcast
Overcast
 Wind from ENE
Wind: ENE 14 mph , 22 km/h
Temperature: 36°F , 2°C
Wind Chill: 27°F , -3°C
Dew Point: 27°F , -3°C
Humidity: 70%
Barometer: 30.37 inHg , 1028.4 hPa
Clouds: Overcast
Visibility: 10 miles , 16 km
Cloud details: Mostly cloudy 10000 ft
Overcast 20000 ft
2019/02/19 14:53 KLIT 191453Z 07012KT 10SM BKN100 OVC200 02/M03 A3037 RMK AO2 SLP288 T00171033 56014

Refresh Page for latest data.